createdAt,value
2018-08-23T00:02:03.511Z,21.30
2018-08-23T00:04:40.164Z,21.20
2018-08-23T00:07:14.556Z,21.30
2018-08-23T00:12:44.548Z,21.20
2018-08-23T00:15:23.907Z,21.20
2018-08-23T00:18:00.872Z,21.20
2018-08-23T00:20:36.343Z,21.10
2018-08-23T00:23:13.093Z,21.10
2018-08-23T00:28:23.860Z,21.00
2018-08-23T00:30:57.105Z,21.00
2018-08-23T00:33:27.133Z,21.00
2018-08-23T00:35:57.617Z,20.90
2018-08-23T00:38:34.107Z,20.80
2018-08-23T00:41:03.651Z,20.80
2018-08-23T00:43:32.344Z,20.70
2018-08-23T00:46:06.371Z,20.60
2018-08-23T00:48:44.557Z,20.70
2018-08-23T00:51:15.000Z,20.60
2018-08-23T00:53:53.997Z,20.50
2018-08-23T00:56:25.782Z,20.50
2018-08-23T00:59:03.908Z,20.50
2018-08-23T01:01:33.873Z,20.50
2018-08-23T01:04:05.600Z,20.50
2018-08-23T01:06:43.755Z,20.50
2018-08-23T01:09:19.099Z,20.50
2018-08-23T01:11:51.918Z,20.50
2018-08-23T01:14:22.500Z,20.50
2018-08-23T01:17:07.043Z,20.50
2018-08-23T01:19:43.104Z,20.50
2018-08-23T01:22:12.894Z,20.40
2018-08-23T01:25:04.130Z,20.40
2018-08-23T01:27:38.350Z,20.40
2018-08-23T01:30:13.969Z,20.20
2018-08-23T01:33:18.035Z,20.20
2018-08-23T01:35:49.149Z,20.10
2018-08-23T01:38:20.250Z,20.00
2018-08-23T01:40:59.356Z,20.10
2018-08-23T01:43:28.719Z,20.00
2018-08-23T01:46:01.235Z,20.10
2018-08-23T01:48:47.630Z,20.10
2018-08-23T01:51:16.720Z,20.00
2018-08-23T01:53:50.377Z,20.00
2018-08-23T01:56:26.397Z,20.00
2018-08-23T01:58:58.274Z,20.10
2018-08-23T02:01:30.063Z,20.10
2018-08-23T02:03:58.783Z,20.00
2018-08-23T02:06:36.445Z,20.00
2018-08-23T02:09:08.266Z,20.00
2018-08-23T02:11:41.629Z,19.90
2018-08-23T02:14:17.564Z,19.90
2018-08-23T02:16:53.236Z,20.00
2018-08-23T02:19:23.177Z,19.90
2018-08-23T02:21:53.024Z,19.90
2018-08-23T02:24:28.392Z,19.90
2018-08-23T02:27:00.134Z,19.90
2018-08-23T02:29:43.936Z,19.90
2018-08-23T02:32:18.355Z,19.80
2018-08-23T02:34:49.037Z,19.80
2018-08-23T02:37:23.817Z,19.80
2018-08-23T02:39:55.323Z,19.70
2018-08-23T02:42:24.684Z,19.70
2018-08-23T02:45:03.394Z,19.70
2018-08-23T02:47:33.757Z,19.60
2018-08-23T02:50:06.221Z,19.60
2018-08-23T02:52:36.638Z,19.50
2018-08-23T02:55:07.048Z,19.50
2018-08-23T02:57:39.371Z,19.50
2018-08-23T03:00:08.216Z,19.50
2018-08-23T03:02:40.730Z,19.40
2018-08-23T03:05:13.599Z,19.50
2018-08-23T03:07:43.152Z,19.50
2018-08-23T03:10:13.330Z,19.50
2018-08-23T03:12:43.464Z,19.50
2018-08-23T03:15:19.385Z,19.50
2018-08-23T03:17:55.617Z,19.50
2018-08-23T03:20:26.954Z,19.40
2018-08-23T03:22:57.646Z,19.40
2018-08-23T03:25:26.667Z,19.30
2018-08-23T03:27:57.387Z,19.40
2018-08-23T03:30:29.184Z,19.40
2018-08-23T03:33:00.253Z,19.40
2018-08-23T03:35:34.101Z,19.40
2018-08-23T03:38:07.848Z,19.50
2018-08-23T03:40:38.825Z,19.50
2018-08-23T03:43:11.974Z,19.40
2018-08-23T03:45:45.349Z,19.30
2018-08-23T03:48:16.342Z,19.40
2018-08-23T03:50:52.777Z,19.40
2018-08-23T03:53:25.837Z,19.30
2018-08-23T03:56:10.351Z,19.30
2018-08-23T03:58:43.045Z,19.20
2018-08-23T04:01:18.897Z,19.20
2018-08-23T04:03:51.433Z,19.20
2018-08-23T04:06:32.820Z,19.20
2018-08-23T04:09:04.888Z,19.20
2018-08-23T04:11:39.043Z,19.20
2018-08-23T04:14:10.845Z,19.10
2018-08-23T04:16:48.700Z,19.00
2018-08-23T04:19:19.897Z,19.00
2018-08-23T04:21:55.245Z,19.00
2018-08-23T04:24:26.058Z,19.00
2018-08-23T04:26:55.111Z,19.10
2018-08-23T04:29:35.651Z,19.20
2018-08-23T04:32:10.023Z,19.20
2018-08-23T04:34:42.721Z,19.10
2018-08-23T04:37:14.187Z,19.10
2018-08-23T04:39:50.745Z,19.00
2018-08-23T04:42:21.832Z,19.10
2018-08-23T04:44:53.912Z,19.00
2018-08-23T04:47:26.480Z,19.00
2018-08-23T04:49:56.165Z,19.00
2018-08-23T04:52:25.194Z,19.00
2018-08-23T04:54:57.079Z,19.00
2018-08-23T04:57:30.549Z,19.00
2018-08-23T05:00:01.667Z,19.00
2018-08-23T05:02:32.664Z,18.90
2018-08-23T05:05:01.804Z,18.90
2018-08-23T05:07:38.168Z,18.90
2018-08-23T05:10:09.238Z,19.00
2018-08-23T05:12:42.372Z,19.10
2018-08-23T05:15:13.891Z,19.00
2018-08-23T05:17:44.008Z,19.10
2018-08-23T05:20:15.377Z,19.10
2018-08-23T05:23:06.427Z,19.10
2018-08-23T05:25:35.014Z,19.10
2018-08-23T05:28:19.043Z,19.10
2018-08-23T05:30:48.439Z,19.10
2018-08-23T05:33:20.066Z,19.20
2018-08-23T05:35:48.819Z,19.20
2018-08-23T05:38:18.042Z,19.30
2018-08-23T05:40:53.404Z,19.40
2018-08-23T05:43:22.528Z,19.40
2018-08-23T05:45:52.433Z,19.50
2018-08-23T05:51:12.484Z,19.50
2018-08-23T05:53:45.199Z,19.50
2018-08-23T05:56:13.808Z,19.60
2018-08-23T05:58:42.443Z,19.60
2018-08-23T06:01:11.108Z,19.70
2018-08-23T06:03:39.743Z,19.80
2018-08-23T06:06:08.737Z,19.80
2018-08-23T06:08:39.907Z,19.90
2018-08-23T06:11:09.737Z,19.90
2018-08-23T06:13:38.672Z,19.90
2018-08-23T06:16:07.310Z,20.10
2018-08-23T06:18:35.926Z,20.20
2018-08-23T06:21:04.605Z,20.30
2018-08-23T06:24:04.806Z,20.40
2018-08-23T06:26:41.831Z,20.60
2018-08-23T06:29:13.334Z,20.80
2018-08-23T06:31:49.077Z,21.10
2018-08-23T06:34:17.716Z,21.50
2018-08-23T06:36:47.043Z,21.90
2018-08-23T06:39:15.724Z,22.30
2018-08-23T06:41:44.323Z,22.70
2018-08-23T06:44:12.951Z,23.00
2018-08-23T06:46:41.596Z,23.40
2018-08-23T06:49:10.209Z,23.80
2018-08-23T06:51:38.815Z,24.10
2018-08-23T06:54:07.464Z,24.50
2018-08-23T06:56:37.980Z,24.80
2018-08-23T06:59:07.083Z,25.10
2018-08-23T07:01:41.088Z,25.40
2018-08-23T07:04:12.725Z,25.60
2018-08-23T07:06:41.562Z,25.60
2018-08-23T07:09:13.048Z,25.50
2018-08-23T07:11:41.924Z,25.30
2018-08-23T07:14:17.602Z,25.20
2018-08-23T07:16:48.551Z,25.20
2018-08-23T07:19:33.108Z,25.20
2018-08-23T07:22:07.984Z,25.10
2018-08-23T07:24:49.661Z,25.10
2018-08-23T07:27:19.732Z,25.00
2018-08-23T07:29:58.265Z,25.00
2018-08-23T07:32:30.849Z,25.00
2018-08-23T07:35:05.792Z,25.00
2018-08-23T07:37:35.792Z,24.90
2018-08-23T07:40:10.880Z,24.90
2018-08-23T07:42:40.856Z,24.90
2018-08-23T07:45:10.055Z,25.00
2018-08-23T07:47:41.237Z,25.30
2018-08-23T07:50:09.908Z,25.70
2018-08-23T07:52:41.106Z,25.90
2018-08-23T07:55:09.763Z,26.00
2018-08-23T07:57:39.014Z,26.00
2018-08-23T08:00:42.512Z,26.00
2018-08-23T08:03:12.504Z,26.00
2018-08-23T08:05:42.464Z,25.90
2018-08-23T08:08:12.031Z,25.90
2018-08-23T08:10:42.828Z,26.00
2018-08-23T08:13:11.693Z,26.10
2018-08-23T08:15:40.349Z,26.20
2018-08-23T08:18:16.030Z,26.30
2018-08-23T08:20:50.481Z,26.40
2018-08-23T08:23:19.217Z,26.40
2018-08-23T08:25:47.908Z,26.50
2018-08-23T08:28:17.632Z,26.70
2018-08-23T08:30:47.001Z,26.80
2018-08-23T08:33:19.938Z,27.00
2018-08-23T08:35:48.572Z,27.30
2018-08-23T08:38:17.276Z,27.50
2018-08-23T08:40:46.048Z,27.70
2018-08-23T08:43:14.728Z,28.00
2018-08-23T08:45:43.410Z,28.00
2018-08-23T08:48:19.590Z,28.00
2018-08-23T08:51:04.454Z,28.10
2018-08-23T08:53:33.759Z,28.40
2018-08-23T08:56:02.440Z,28.60
2018-08-23T08:58:31.119Z,28.70
2018-08-23T09:00:59.772Z,28.80
2018-08-23T09:03:32.866Z,28.90
2018-08-23T09:06:02.821Z,29.00
2018-08-23T09:08:31.518Z,29.10
2018-08-23T09:11:00.142Z,29.20
2018-08-23T09:13:34.332Z,29.40
2018-08-23T09:16:06.656Z,29.50
2018-08-23T09:18:36.645Z,29.70
2018-08-23T09:21:05.572Z,29.90
2018-08-23T09:23:34.200Z,30.10
2018-08-23T09:26:02.841Z,30.40
2018-08-23T09:28:31.480Z,30.60
2018-08-23T09:31:00.124Z,30.80
2018-08-23T09:33:29.273Z,30.80
2018-08-23T09:35:58.092Z,31.00
2018-08-23T09:38:26.764Z,31.10
2018-08-23T09:40:55.364Z,31.10
2018-08-23T09:43:23.956Z,31.10
2018-08-23T09:45:54.370Z,31.00
2018-08-23T09:48:23.156Z,31.10
2018-08-23T09:50:51.855Z,31.30
2018-08-23T09:53:23.357Z,31.40
2018-08-23T09:55:52.606Z,31.60
2018-08-23T09:58:26.907Z,31.50
2018-08-23T10:01:00.959Z,31.70
2018-08-23T10:03:37.172Z,31.80
2018-08-23T10:06:11.304Z,32.00
2018-08-23T10:08:45.300Z,32.00
2018-08-23T10:11:19.966Z,32.10
2018-08-23T10:13:54.040Z,32.30
2018-08-23T10:16:27.999Z,32.50
2018-08-23T10:18:58.608Z,32.40
2018-08-23T10:21:32.660Z,32.60
2018-08-23T10:24:15.175Z,32.60
2018-08-23T10:26:44.518Z,32.80
2018-08-23T10:29:13.101Z,32.90
2018-08-23T10:31:41.724Z,33.00
2018-08-23T10:34:10.416Z,33.00
2018-08-23T10:36:39.029Z,33.20
2018-08-23T10:39:09.555Z,33.20
2018-08-23T10:41:38.306Z,33.20
2018-08-23T10:44:07.153Z,33.20
2018-08-23T10:46:41.055Z,33.30
2018-08-23T10:49:09.741Z,33.30
2018-08-23T10:51:38.368Z,33.40
2018-08-23T10:54:07.003Z,33.50
2018-08-23T10:56:35.884Z,33.50
2018-08-23T10:59:04.602Z,33.60
2018-08-23T11:01:33.137Z,33.70
2018-08-23T11:04:06.628Z,33.80
2018-08-23T11:06:36.506Z,33.80
2018-08-23T11:09:12.370Z,33.80
2018-08-23T11:11:40.975Z,33.80
2018-08-23T11:14:15.028Z,34.00
2018-08-23T11:16:49.157Z,34.00
2018-08-23T11:19:23.291Z,34.10
2018-08-23T11:21:51.923Z,34.10
2018-08-23T11:24:20.540Z,34.10
2018-08-23T11:26:49.192Z,34.30
2018-08-23T11:29:18.295Z,34.30
2018-08-23T11:31:46.960Z,34.40
2018-08-23T11:34:15.928Z,34.30
2018-08-23T11:36:44.572Z,34.40
2018-08-23T11:39:13.761Z,34.50
2018-08-23T11:41:42.600Z,34.60
2018-08-23T11:44:11.388Z,34.60
2018-08-23T11:46:40.033Z,34.70
2018-08-23T11:49:08.644Z,34.90
2018-08-23T11:51:37.420Z,34.90
2018-08-23T11:54:06.695Z,34.90
2018-08-23T11:59:14.762Z,35.00
2018-08-23T12:01:44.484Z,35.10
2018-08-23T12:04:13.620Z,35.10
2018-08-23T12:06:42.256Z,35.20
2018-08-23T12:09:13.426Z,35.10
2018-08-23T12:11:42.745Z,35.20
2018-08-23T12:14:11.992Z,35.30
2018-08-23T12:16:40.661Z,35.30
2018-08-23T12:19:09.460Z,35.40
2018-08-23T12:21:38.088Z,35.50
2018-08-23T12:24:06.724Z,35.50
2018-08-23T12:26:36.306Z,35.50
2018-08-23T12:29:10.637Z,35.50
2018-08-23T12:31:40.343Z,35.50
2018-08-23T12:34:10.205Z,35.50
2018-08-23T12:36:45.089Z,35.50
2018-08-23T12:39:19.048Z,35.70
2018-08-23T12:41:54.779Z,35.70
2018-08-23T12:44:23.420Z,35.70
2018-08-23T12:46:57.392Z,35.80
2018-08-23T12:49:26.117Z,35.90
2018-08-23T12:51:55.879Z,35.90
2018-08-23T12:54:24.490Z,35.90
2018-08-23T12:56:53.695Z,35.90
2018-08-23T12:59:22.445Z,36.00
2018-08-23T13:01:51.153Z,36.10
2018-08-23T13:04:19.738Z,36.10
2018-08-23T13:06:48.440Z,36.20
2018-08-23T13:09:17.904Z,36.20
2018-08-23T13:11:47.792Z,36.20
2018-08-23T13:14:17.330Z,36.20
2018-08-23T13:16:46.064Z,36.20
2018-08-23T13:19:14.700Z,36.30
2018-08-23T13:21:43.302Z,36.20
2018-08-23T13:24:11.935Z,36.20
2018-08-23T13:26:44.612Z,36.20
2018-08-23T13:29:13.331Z,36.20
2018-08-23T13:31:43.347Z,36.30
2018-08-23T13:34:13.301Z,36.30
2018-08-23T13:36:42.298Z,36.40
2018-08-23T13:39:12.732Z,36.40
2018-08-23T13:41:42.157Z,36.40
2018-08-23T13:44:10.936Z,36.30
2018-08-23T13:46:39.572Z,36.30
2018-08-23T13:49:08.418Z,36.10
2018-08-23T13:51:38.137Z,35.90
2018-08-23T13:54:06.776Z,35.80
2018-08-23T13:56:36.308Z,35.30
2018-08-23T13:59:04.992Z,34.40
2018-08-23T14:01:33.796Z,33.70
2018-08-23T14:04:02.441Z,32.90
2018-08-23T14:06:32.193Z,32.30
2018-08-23T14:09:01.670Z,31.90
2018-08-23T14:11:30.302Z,31.40
2018-08-23T14:14:00.072Z,30.90
2018-08-23T14:16:29.710Z,30.10
2018-08-23T14:18:59.532Z,29.00
2018-08-23T14:21:28.771Z,27.90
2018-08-23T14:23:57.383Z,26.30
2018-08-23T14:26:27.957Z,25.40
2018-08-23T14:28:56.961Z,24.80
2018-08-23T14:31:25.964Z,24.70
2018-08-23T14:33:54.730Z,24.80
2018-08-23T14:36:24.115Z,24.70
2018-08-23T14:38:52.812Z,24.80
2018-08-23T14:41:21.982Z,24.70
2018-08-23T14:43:50.638Z,24.80
2018-08-23T14:46:24.801Z,24.70
2018-08-23T14:48:53.428Z,24.70
2018-08-23T14:51:22.116Z,24.70
2018-08-23T14:53:51.276Z,24.60
2018-08-23T14:56:25.637Z,24.60
2018-08-23T14:58:55.173Z,24.30
2018-08-23T15:01:23.849Z,24.70
2018-08-23T15:03:52.559Z,24.80
2018-08-23T15:06:21.223Z,24.90
2018-08-23T15:08:49.808Z,24.90
2018-08-23T15:11:18.469Z,24.90
2018-08-23T15:13:47.068Z,24.90
2018-08-23T15:16:15.943Z,25.00
2018-08-23T15:18:44.543Z,25.00
2018-08-23T15:21:13.216Z,25.00
2018-08-23T15:23:42.028Z,25.00
2018-08-23T15:26:10.706Z,25.10
2018-08-23T15:28:39.520Z,25.10
2018-08-23T15:31:08.117Z,25.30
2018-08-23T15:33:37.048Z,25.40
2018-08-23T15:36:06.085Z,25.50
2018-08-23T15:38:35.168Z,25.60
2018-08-23T15:41:03.850Z,25.70
2018-08-23T15:43:32.529Z,25.60
2018-08-23T15:46:01.168Z,25.70
2018-08-23T15:48:29.760Z,25.80
2018-08-23T15:50:58.375Z,25.90
2018-08-23T15:53:26.968Z,26.00
2018-08-23T15:55:55.670Z,26.10
2018-08-23T15:58:24.217Z,26.30
2018-08-23T16:00:52.815Z,26.40
2018-08-23T16:03:21.429Z,26.60
2018-08-23T16:05:50.141Z,26.70
2018-08-23T16:08:19.001Z,26.80
2018-08-23T16:10:47.633Z,26.90
2018-08-23T16:13:16.243Z,26.90
2018-08-23T16:15:44.884Z,27.00
2018-08-23T16:20:25.360Z,27.10
2018-08-23T16:22:54.113Z,27.20
2018-08-23T16:25:22.777Z,27.30
2018-08-23T16:27:51.393Z,27.30
2018-08-23T16:30:20.228Z,27.30
2018-08-23T16:32:48.848Z,27.30
2018-08-23T16:35:17.469Z,27.40
2018-08-23T16:37:46.084Z,27.40
2018-08-23T16:40:20.008Z,27.40
2018-08-23T16:42:48.622Z,27.40
2018-08-23T16:45:17.277Z,27.40
2018-08-23T16:47:45.883Z,27.40
2018-08-23T16:50:14.555Z,27.40
2018-08-23T16:52:43.192Z,27.50
2018-08-23T16:55:13.525Z,27.40
2018-08-23T16:57:42.273Z,27.40
2018-08-23T17:00:11.011Z,27.30
2018-08-23T17:02:39.804Z,27.30
2018-08-23T17:05:08.639Z,27.30
2018-08-23T17:07:37.252Z,27.20
2018-08-23T17:10:05.956Z,27.10
2018-08-23T17:12:34.598Z,27.00
2018-08-23T17:15:03.312Z,26.90
2018-08-23T17:17:33.915Z,26.80
2018-08-23T17:20:02.553Z,26.80
2018-08-23T17:22:31.221Z,26.80
2018-08-23T17:24:59.935Z,26.70
2018-08-23T17:27:28.481Z,26.70
2018-08-23T17:29:57.269Z,26.60
2018-08-23T17:32:25.879Z,26.60
2018-08-23T17:34:55.293Z,26.50
2018-08-23T17:37:23.921Z,26.50
2018-08-23T17:39:52.520Z,26.40
2018-08-23T17:42:25.528Z,26.30
2018-08-23T17:44:54.280Z,26.10
2018-08-23T17:47:22.890Z,26.00
2018-08-23T17:49:51.533Z,25.90
2018-08-23T17:52:20.296Z,25.80
2018-08-23T17:54:48.903Z,25.70
2018-08-23T17:57:17.513Z,25.60
2018-08-23T17:59:46.756Z,25.60
2018-08-23T18:02:15.354Z,25.70
2018-08-23T18:04:43.989Z,25.40
2018-08-23T18:07:12.600Z,25.40
2018-08-23T18:09:41.227Z,25.40
2018-08-23T18:12:09.908Z,25.30
2018-08-23T18:14:38.520Z,25.30
2018-08-23T18:17:07.143Z,25.20
2018-08-23T18:19:35.742Z,25.10
2018-08-23T18:22:04.361Z,25.10
2018-08-23T18:24:32.957Z,25.00
2018-08-23T18:27:01.699Z,24.90
2018-08-23T18:29:30.320Z,24.60
2018-08-23T18:31:58.957Z,24.60
2018-08-23T18:34:27.556Z,24.70
2018-08-23T18:36:56.164Z,24.70
2018-08-23T18:39:24.756Z,24.70
2018-08-23T18:41:53.348Z,24.80
2018-08-23T18:44:22.379Z,24.80
2018-08-23T18:46:50.971Z,24.80
2018-08-23T18:49:19.589Z,24.80
2018-08-23T18:51:48.203Z,24.80
2018-08-23T18:54:16.841Z,24.90
2018-08-23T18:56:45.460Z,24.80
2018-08-23T18:59:14.070Z,24.70
2018-08-23T19:01:43.208Z,24.70
2018-08-23T19:04:11.793Z,24.70
2018-08-23T19:06:40.369Z,24.70
2018-08-23T19:09:11.808Z,24.70
2018-08-23T19:11:40.432Z,24.70
2018-08-23T19:14:09.052Z,24.60
2018-08-23T19:16:42.935Z,24.60
2018-08-23T19:19:11.548Z,24.50
2018-08-23T19:21:40.241Z,24.50
2018-08-23T19:24:08.884Z,24.40
2018-08-23T19:26:37.505Z,24.30
2018-08-23T19:29:06.129Z,24.40
2018-08-23T19:31:34.748Z,24.40
2018-08-23T19:34:03.400Z,24.40
2018-08-23T19:36:32.016Z,24.40
2018-08-23T19:39:05.256Z,24.30
2018-08-23T19:41:34.953Z,24.30
2018-08-23T19:44:05.524Z,24.30
2018-08-23T19:46:39.629Z,24.20
2018-08-23T19:49:13.821Z,24.30
2018-08-23T19:51:42.489Z,24.20
2018-08-23T19:54:13.032Z,24.20
2018-08-23T19:56:45.017Z,24.20
2018-08-23T19:59:19.076Z,24.20
2018-08-23T20:01:50.032Z,24.10
2018-08-23T20:04:29.263Z,24.00
2018-08-23T20:06:58.147Z,24.10
2018-08-23T20:09:28.065Z,23.90
2018-08-23T20:11:56.667Z,23.90
2018-08-23T20:14:25.255Z,23.80
2018-08-23T20:16:53.865Z,23.80
2018-08-23T20:19:23.411Z,23.80
2018-08-23T20:21:52.236Z,23.80
2018-08-23T20:24:21.760Z,23.80
2018-08-23T20:26:51.968Z,23.90
2018-08-23T20:29:20.828Z,23.80
2018-08-23T20:31:51.491Z,23.80
2018-08-23T20:34:20.096Z,23.70
2018-08-23T20:36:48.726Z,23.60
2018-08-23T20:39:17.541Z,23.50
2018-08-23T20:41:46.821Z,23.40
2018-08-23T20:44:16.705Z,23.30
2018-08-23T20:46:51.309Z,23.30
2018-08-23T20:49:20.841Z,23.30
2018-08-23T20:51:49.873Z,23.20
2018-08-23T20:54:26.131Z,23.20
2018-08-23T20:56:54.770Z,23.10
2018-08-23T20:59:23.445Z,23.10
2018-08-23T21:01:52.437Z,23.10
2018-08-23T21:04:21.107Z,23.00
2018-08-23T21:07:03.916Z,23.00
2018-08-23T21:09:32.628Z,23.00
2018-08-23T21:12:01.344Z,23.00
2018-08-23T21:14:30.113Z,22.90
2018-08-23T21:16:58.802Z,22.90
2018-08-23T21:19:30.185Z,22.90
2018-08-23T21:22:08.565Z,22.90
2018-08-23T21:24:42.273Z,22.80
2018-08-23T21:27:13.595Z,22.80
2018-08-23T21:29:51.289Z,22.80
2018-08-23T21:32:21.237Z,22.80
2018-08-23T21:34:51.134Z,22.80
2018-08-23T21:37:23.940Z,22.80
2018-08-23T21:40:02.320Z,22.70
2018-08-23T21:42:31.471Z,22.70
2018-08-23T21:45:05.457Z,22.70
2018-08-23T21:47:36.246Z,22.60
2018-08-23T21:50:09.885Z,22.70
2018-08-23T21:52:44.577Z,22.60
2018-08-23T21:55:23.708Z,22.60
2018-08-23T21:57:55.521Z,22.50
2018-08-23T22:00:26.912Z,22.50
2018-08-23T22:02:58.909Z,22.40
2018-08-23T22:05:31.636Z,22.40
2018-08-23T22:08:05.243Z,22.40
2018-08-23T22:10:39.544Z,22.40
2018-08-23T22:13:11.461Z,22.40
2018-08-23T22:15:47.097Z,22.40
2018-08-23T22:18:19.111Z,22.40
2018-08-23T22:20:49.520Z,22.40
2018-08-23T22:23:22.359Z,22.40
2018-08-23T22:25:53.205Z,22.40
2018-08-23T22:28:24.239Z,22.40
2018-08-23T22:30:55.276Z,22.40
2018-08-23T22:33:27.938Z,22.40
2018-08-23T22:36:01.665Z,22.30
2018-08-23T22:38:31.234Z,22.30
2018-08-23T22:41:00.313Z,22.30
2018-08-23T22:43:30.577Z,22.20
2018-08-23T22:46:03.491Z,22.20
2018-08-23T22:48:34.210Z,22.20
2018-08-23T22:51:05.103Z,22.10
2018-08-23T22:53:36.448Z,22.10
2018-08-23T22:56:08.247Z,22.10
2018-08-23T22:58:41.404Z,22.00
2018-08-23T23:01:16.480Z,22.00
2018-08-23T23:03:50.594Z,22.00
2018-08-23T23:06:24.982Z,21.90
2018-08-23T23:08:54.909Z,21.90
2018-08-23T23:11:27.353Z,21.90
2018-08-23T23:13:58.980Z,21.90
2018-08-23T23:16:29.364Z,21.90
2018-08-23T23:18:59.116Z,21.90
2018-08-23T23:21:30.457Z,21.90
2018-08-23T23:23:59.422Z,22.00
2018-08-23T23:26:29.735Z,21.90
2018-08-23T23:28:58.467Z,21.90
2018-08-23T23:31:28.987Z,21.90
2018-08-23T23:33:59.405Z,21.80
2018-08-23T23:36:36.080Z,21.80
2018-08-23T23:39:11.209Z,21.90
2018-08-23T23:41:47.920Z,21.80
2018-08-23T23:44:24.528Z,21.80
2018-08-23T23:46:54.605Z,21.80
2018-08-23T23:49:23.372Z,21.80
2018-08-23T23:51:55.634Z,21.80
2018-08-23T23:54:27.708Z,21.80
2018-08-23T23:56:58.918Z,21.70
2018-08-23T23:59:31.381Z,21.70
